Time;durP1;ratioP1;P1;durP2;ratioP2;P2;SDS_P1;SDS_P2;PMS_P1;PMS_P2;Temp;Humidity;BMP_temperature;BMP_pressure;BME280_temperature;BME280_humidity;BME280_pressure;Samples;Min_cycle;Max_cycle;Signal;HPM_P1;HPM_P2
2022/12/11 00:01:26;;;;;;;;;56.00;43.00;;;;;2.18;83.03;101088.16;5072936;28;11625;-66
2022/12/11 00:03:52;;;;;;;;;48.75;41.25;;;;;2.21;82.98;101087.06;5071878;28;11713;-66
2022/12/11 00:06:21;;;;;;;;;46.25;40.00;;;;;2.20;82.76;101085.41;5072822;28;11602;-66
2022/12/11 00:08:53;;;;;;;;;60.25;40.50;;;;;2.21;82.60;101087.91;5063264;28;11618;-66
2022/12/11 00:11:21;;;;;;;;;54.50;45.25;;;;;2.22;82.76;101088.75;5071938;28;12170;-67
2022/12/11 00:13:47;;;;;;;;;45.50;36.75;;;;;2.23;82.60;101087.81;5073424;28;12289;-67
2022/12/11 00:16:14;;;;;;;;;44.50;39.25;;;;;2.25;82.72;101085.84;5038496;28;11585;-65
2022/12/11 00:18:41;;;;;;;;;51.00;42.00;;;;;2.25;82.65;101087.66;5072261;28;11664;-66
2022/12/11 00:21:12;;;;;;;;;41.25;34.75;;;;;2.25;82.45;101092.97;5063267;28;12376;-66
2022/12/11 00:23:39;;;;;;;;;49.25;39.00;;;;;2.28;82.68;101082.91;5070268;28;11592;-66
2022/12/11 00:26:08;;;;;;;;;43.75;34.50;;;;;2.28;82.30;101085.56;5072703;28;11592;-66
2022/12/11 00:28:35;;;;;;;;;49.50;43.25;;;;;2.22;82.16;101086.94;5072829;28;11686;-66
2022/12/11 00:31:07;;;;;;;;;42.75;33.75;;;;;2.24;82.40;101086.81;5054886;28;11666;-66
2022/12/11 00:33:33;;;;;;;;;47.50;37.50;;;;;2.20;82.57;101085.41;5068644;28;11575;-66
2022/12/11 00:35:59;;;;;;;;;49.00;38.75;;;;;2.21;82.69;101085.25;5052547;28;11621;-65
2022/12/11 00:38:26;;;;;;;;;37.75;34.00;;;;;2.17;82.34;101081.19;5072833;28;11603;-66
2022/12/11 00:40:57;;;;;;;;;45.50;39.75;;;;;2.18;82.74;101082.88;5072400;28;11595;-65
2022/12/11 00:43:24;;;;;;;;;47.50;35.00;;;;;2.18;82.68;101084.69;5072856;28;11584;-68
2022/12/11 00:45:50;;;;;;;;;45.50;39.25;;;;;2.17;82.53;101077.69;5071374;28;11649;-65
2022/12/11 00:48:17;;;;;;;;;47.00;38.75;;;;;2.17;82.59;101080.34;5064130;28;12611;-66
2022/12/11 00:50:43;;;;;;;;;49.75;38.50;;;;;2.20;82.80;101085.41;5066505;28;11678;-65
2022/12/11 00:53:09;;;;;;;;;61.00;42.75;;;;;2.20;82.53;101075.63;5072702;28;11743;-65
2022/12/11 00:55:40;;;;;;;;;41.25;36.75;;;;;2.26;82.71;101076.88;5066823;28;11589;-66
2022/12/11 00:58:07;;;;;;;;;50.25;39.75;;;;;2.26;82.43;101084.00;5072663;28;11597;-67
2022/12/11 01:00:34;;;;;;;;;49.50;42.00;;;;;2.25;82.31;101077.88;5069259;28;11585;-66
2022/12/11 01:03:01;;;;;;;;;51.75;39.50;;;;;2.30;82.58;101080.13;5072517;28;12333;-66
2022/12/11 01:05:28;;;;;;;;;46.00;39.50;;;;;2.35;82.48;101068.13;5061780;28;11699;-65
2022/12/11 01:07:54;;;;;;;;;48.00;37.50;;;;;2.35;82.22;101076.09;5068880;28;11592;-66
2022/12/11 01:10:24;;;;;;;;;46.50;44.00;;;;;2.33;82.32;101071.88;5071252;28;11682;-66
2022/12/11 01:13:03;;;;;;;;;47.75;44.00;;;;;2.34;82.27;101066.41;5042456;28;12327;-66
2022/12/11 01:15:32;;;;;;;;;52.25;43.50;;;;;2.37;82.19;101067.97;5063565;28;11606;-66
2022/12/11 01:18:05;;;;;;;;;37.50;31.00;;;;;2.34;82.33;101066.41;5072312;28;11700;-66
2022/12/11 01:20:31;;;;;;;;;57.75;44.50;;;;;2.32;82.43;101064.91;5071752;28;11622;-66
2022/12/11 01:22:59;;;;;;;;;53.00;42.25;;;;;2.36;82.48;101066.31;5054342;28;11596;-66
2022/12/11 01:25:27;;;;;;;;;59.75;43.75;;;;;2.36;82.54;101053.88;5047225;28;11585;-66
2022/12/11 01:27:54;;;;;;;;;53.00;45.50;;;;;2.32;82.48;101060.41;5068839;28;11584;-66
2022/12/11 01:30:23;;;;;;;;;58.50;47.25;;;;;2.32;81.98;101062.25;5052206;28;11717;-65
2022/12/11 01:32:50;;;;;;;;;59.25;45.00;;;;;2.30;82.55;101070.31;5063031;28;11763;-65
2022/12/11 01:35:17;;;;;;;;;58.00;43.50;;;;;2.32;82.72;101055.09;5051525;28;11607;-65
2022/12/11 01:37:44;;;;;;;;;55.25;45.25;;;;;2.32;82.42;101062.25;5065519;28;11611;-66
2022/12/11 01:40:14;;;;;;;;;53.75;44.00;;;;;2.29;82.51;101062.50;5068408;28;11559;-67
2022/12/11 01:42:41;;;;;;;;;45.25;40.75;;;;;2.33;82.82;101062.09;5052314;28;11603;-66
2022/12/11 01:45:28;;;;;;;;;52.25;39.50;;;;;2.41;82.69;101056.94;5071315;28;12301;-66
2022/12/11 01:48:18;;;;;;;;;56.25;44.00;;;;;2.47;82.39;101066.16;5071949;28;12344;-65
2022/12/11 01:50:56;;;;;;;;;54.00;44.50;;;;;2.45;82.32;101060.16;5064973;28;11745;-65
2022/12/11 01:53:32;;;;;;;;;61.50;49.75;;;;;2.42;82.41;101060.44;5064317;28;11706;-65
2022/12/11 01:55:58;;;;;;;;;57.50;45.75;;;;;2.42;82.38;101063.94;5071305;28;11647;-66
2022/12/11 01:58:32;;;;;;;;;51.00;44.00;;;;;2.43;82.29;101060.31;5070402;28;11676;-66
2022/12/11 02:01:01;;;;;;;;;43.00;39.00;;;;;2.45;82.29;101053.03;5071211;28;11675;-66
2022/12/11 02:03:27;;;;;;;;;44.50;38.25;;;;;2.48;82.48;101058.09;5070191;28;11590;-65
2022/12/11 02:05:58;;;;;;;;;50.00;47.00;;;;;2.48;82.30;101054.59;5061863;28;11595;-66
2022/12/11 02:08:25;;;;;;;;;22.00;21.50;;;;;2.50;82.29;101051.78;5071257;28;11590;-66
2022/12/11 02:11:14;;;;;;;;;45.50;35.50;;;;;2.54;81.84;101050.53;5070900;28;11653;-67
2022/12/11 02:14:01;;;;;;;;;51.75;41.00;;;;;2.50;82.01;101052.63;5070981;28;11669;-66
2022/12/11 02:16:39;;;;;;;;;52.25;44.75;;;;;2.50;81.80;101051.78;5062572;28;11786;-65
2022/12/11 02:19:20;;;;;;;;;41.25;36.75;;;;;2.50;81.89;101049.97;5048185;28;11553;-66
2022/12/11 02:21:51;;;;;;;;;41.25;32.25;;;;;2.48;81.90;101055.44;5070569;28;11613;-66
2022/12/11 02:24:40;;;;;;;;;55.00;45.25;;;;;2.46;82.02;101046.75;5070529;28;11052;-65
2022/12/11 02:27:19;;;;;;;;;42.00;35.50;;;;;2.47;82.40;101036.94;5016934;28;11609;-66
2022/12/11 02:30:03;;;;;;;;;51.00;43.50;;;;;2.46;81.81;101035.28;5054868;28;11589;-64
2022/12/11 02:32:38;;;;;;;;;40.50;31.75;;;;;2.50;81.97;101039.34;5050197;28;11668;-66
2022/12/11 02:35:17;;;;;;;;;41.00;34.75;;;;;2.48;82.13;101043.97;5063443;28;12335;-66
2022/12/11 02:37:47;;;;;;;;;49.75;40.50;;;;;2.45;81.72;101031.78;5070745;28;11602;-66
2022/12/11 02:40:21;;;;;;;;;52.75;44.50;;;;;2.47;81.95;101036.94;5069825;28;11619;-67
2022/12/11 02:42:49;;;;;;;;;44.25;40.00;;;;;2.47;81.87;101031.63;5046712;28;11606;-66
2022/12/11 02:45:18;;;;;;;;;37.75;34.00;;;;;2.48;81.64;101030.69;5066665;28;11582;-65
2022/12/11 02:47:48;;;;;;;;;49.25;36.00;;;;;2.50;81.87;101033.19;5046875;28;11591;-65
2022/12/11 02:50:18;;;;;;;;;37.75;32.50;;;;;2.52;81.90;101034.75;5070436;28;11594;-66
2022/12/11 02:52:48;;;;;;;;;37.00;31.25;;;;;2.56;82.13;101037.97;5064643;28;11594;-67
2022/12/11 02:55:15;;;;;;;;;40.50;31.75;;;;;2.58;81.77;101034.19;5059380;28;11571;-66
2022/12/11 02:57:55;;;;;;;;;48.50;39.50;;;;;2.57;81.77;101023.69;5062662;28;11582;-67
2022/12/11 03:00:22;;;;;;;;;41.00;36.75;;;;;2.55;81.98;101025.63;5061040;28;11596;-67
2022/12/11 03:02:48;;;;;;;;;42.50;38.25;;;;;2.57;81.64;101023.69;5070259;28;11628;-67
2022/12/11 03:05:15;;;;;;;;;42.50;37.00;;;;;2.55;81.55;101021.16;5069866;28;11608;-66
2022/12/11 03:07:43;;;;;;;;;42.50;31.50;;;;;2.57;81.65;101013.06;5049488;28;11611;-66
2022/12/11 03:10:14;;;;;;;;;38.00;36.75;;;;;2.58;81.16;101009.41;5064065;28;11610;-66
2022/12/11 03:12:43;;;;;;;;;47.75;41.50;;;;;2.57;81.34;101005.94;5070080;28;11587;-67
2022/12/11 03:15:15;;;;;;;;;35.75;30.25;;;;;2.57;81.16;101008.59;5057361;28;11572;-66
2022/12/11 03:17:55;;;;;;;;;36.25;32.00;;;;;2.58;81.48;101012.91;5069964;28;11571;-67
2022/12/11 03:20:43;;;;;;;;;41.00;34.25;;;;;2.57;81.59;101013.91;5063424;28;11614;-67
2022/12/11 03:23:28;;;;;;;;;29.25;26.25;;;;;2.60;81.23;101018.94;5065369;28;11662;-65
2022/12/11 03:26:00;;;;;;;;;42.75;33.00;;;;;2.60;81.31;101020.78;5070063;28;11587;-67
2022/12/11 03:28:46;;;;;;;;;43.00;31.75;;;;;2.60;81.30;101016.28;5050065;28;11644;-67
2022/12/11 03:31:40;;;;;;;;;45.50;33.75;;;;;2.63;81.17;101007.19;5065764;28;11591;-66
2022/12/11 03:34:33;;;;;;;;;35.00;32.00;;;;;2.64;81.28;101012.38;5057993;28;12337;-67
2022/12/11 03:37:04;;;;;;;;;39.50;30.50;;;;;2.62;80.83;101011.66;5055882;28;11574;-66
2022/12/11 03:39:38;;;;;;;;;37.75;31.75;;;;;2.62;81.08;101013.47;5067535;28;11630;-66
2022/12/11 03:42:10;;;;;;;;;38.50;34.50;;;;;2.62;80.95;101014.31;5070035;28;11663;-67
2022/12/11 03:44:37;;;;;;;;;31.00;30.00;;;;;2.63;81.00;101018.69;5069488;28;11604;-67
2022/12/11 03:47:07;;;;;;;;;35.50;30.00;;;;;2.66;80.92;101018.38;5064491;28;11616;-67
2022/12/11 03:49:38;;;;;;;;;36.00;26.50;;;;;2.65;80.94;101022.03;5063233;28;11555;-66
2022/12/11 03:52:07;;;;;;;;;39.00;31.00;;;;;2.67;80.94;101013.91;5069916;28;11612;-67
2022/12/11 03:54:34;;;;;;;;;35.25;30.25;;;;;2.64;80.67;101017.69;5069474;28;11582;-67
2022/12/11 03:57:04;;;;;;;;;40.50;30.25;;;;;2.62;80.86;101022.28;5069889;28;11589;-65
2022/12/11 03:59:30;;;;;;;;;43.25;31.50;;;;;2.63;80.99;101020.47;5064418;28;12381;-66
2022/12/11 04:01:57;;;;;;;;;29.00;26.75;;;;;2.64;80.87;101014.19;5062651;28;11604;-67
2022/12/11 04:04:24;;;;;;;;;37.75;32.00;;;;;2.63;80.73;101017.81;5069606;28;11622;-67
2022/12/11 04:06:50;;;;;;;;;37.00;28.00;;;;;2.61;80.72;101014.47;5068277;28;12348;-67
2022/12/11 04:09:16;;;;;;;;;28.25;28.25;;;;;2.62;80.97;101019.63;5052244;28;11595;-65
2022/12/11 04:11:43;;;;;;;;;32.25;26.50;;;;;2.58;80.33;101012.91;5064327;28;11634;-66
2022/12/11 04:16:58;;;;;;;;;37.50;30.25;;;;;2.63;80.30;101025.78;5068522;28;11620;-67
2022/12/11 04:24:56;;;;;;;;;29.00;27.25;;;;;2.70;80.34;101024.25;5071956;28;11620;-66
2022/12/11 04:30:12;;;;;;;;;30.50;26.25;;;;;2.66;80.46;101022.84;5071638;28;11549;-66
2022/12/11 04:32:39;;;;;;;;;31.00;24.25;;;;;2.65;80.09;101015.88;5072920;28;11568;-66
2022/12/11 04:35:07;;;;;;;;;25.75;23.00;;;;;2.63;80.35;101018.69;5072578;28;11574;-67
2022/12/11 04:37:35;;;;;;;;;26.50;24.75;;;;;2.64;80.21;101019.50;5071961;28;11586;-67
2022/12/11 04:40:04;;;;;;;;;30.25;28.00;;;;;2.60;80.09;101012.78;5056239;28;11593;-66
2022/12/11 04:42:31;;;;;;;;;26.00;23.00;;;;;2.60;80.42;101015.44;5064889;28;11667;-67
2022/12/11 04:44:57;;;;;;;;;34.50;24.75;;;;;2.61;79.90;101006.50;5054774;28;11619;-67
2022/12/11 04:47:24;;;;;;;;;25.25;23.00;;;;;2.65;80.18;101005.25;5072981;28;11544;-65
2022/12/11 04:49:50;;;;;;;;;22.75;21.00;;;;;2.65;79.74;101003.41;5072933;28;11528;-65
2022/12/11 04:52:17;;;;;;;;;30.25;27.75;;;;;2.65;80.11;101005.25;5065053;28;11576;-65
2022/12/11 04:54:43;;;;;;;;;28.50;20.75;;;;;2.66;80.28;101005.09;5054187;28;11587;-67
2022/12/11 04:57:09;;;;;;;;;35.50;30.50;;;;;2.65;79.77;100998.09;5072956;28;11595;-67
2022/12/11 04:59:36;;;;;;;;;29.50;22.75;;;;;2.64;80.13;100999.09;5073506;28;11590;-65
2022/12/11 05:02:03;;;;;;;;;25.75;21.25;;;;;2.67;79.75;100997.94;5072758;28;11640;-66
2022/12/11 05:04:31;;;;;;;;;28.25;26.50;;;;;2.65;79.66;100994.63;5066209;28;11562;-66
2022/12/11 05:06:58;;;;;;;;;32.50;24.00;;;;;2.66;79.98;100994.47;5062663;28;11581;-64
2022/12/11 05:09:26;;;;;;;;;22.75;17.25;;;;;2.67;79.67;100998.81;5073381;28;11602;-66
2022/12/11 05:11:52;;;;;;;;;31.75;30.25;;;;;2.70;79.89;101005.66;5072410;28;11579;-66
2022/12/11 05:14:19;;;;;;;;;31.50;28.50;;;;;2.64;79.57;101004.41;5072300;28;11576;-66
2022/12/11 05:16:46;;;;;;;;;28.50;25.75;;;;;2.64;79.59;101008.88;5068627;28;11574;-66
2022/12/11 05:19:13;;;;;;;;;33.75;30.25;;;;;2.57;79.58;101005.94;5055268;28;11609;-65
2022/12/11 05:21:39;;;;;;;;;27.50;23.75;;;;;2.58;79.61;101007.59;5071151;28;11603;-66
2022/12/11 05:24:06;;;;;;;;;28.75;21.75;;;;;2.58;80.03;100999.63;5054415;28;11563;-67
2022/12/11 05:26:32;;;;;;;;;30.75;26.50;;;;;2.57;80.08;100999.78;5072615;28;11573;-68
2022/12/11 05:28:59;;;;;;;;;29.50;25.00;;;;;2.58;79.63;100998.78;5072007;28;11608;-64
2022/12/11 05:31:26;;;;;;;;;29.50;24.50;;;;;2.58;79.69;100999.63;5059947;28;11584;-68
2022/12/11 05:33:53;;;;;;;;;31.25;29.75;;;;;2.51;79.76;100993.19;5049077;28;11585;-66
2022/12/11 05:36:25;;;;;;;;;32.50;28.75;;;;;2.52;79.79;100988.72;5051552;28;11720;-66
2022/12/11 05:38:52;;;;;;;;;32.50;27.25;;;;;2.54;80.33;100990.25;5051855;28;11649;-66
2022/12/11 05:41:21;;;;;;;;;22.50;22.00;;;;;2.59;80.13;100995.16;5051828;28;11576;-67
2022/12/11 05:43:47;;;;;;;;;24.75;23.00;;;;;2.55;79.85;100986.63;5063046;28;11623;-65
2022/12/11 05:46:18;;;;;;;;;29.75;24.75;;;;;2.54;80.22;100989.41;5065561;28;11574;-66
2022/12/11 05:48:47;;;;;;;;;43.25;27.75;;;;;2.55;79.86;100983.97;5052184;28;12705;-65
2022/12/11 05:51:15;;;;;;;;;40.25;31.00;;;;;2.55;80.19;100977.81;5071263;28;11555;-65
2022/12/11 05:53:43;;;;;;;;;34.75;28.50;;;;;2.56;80.11;100975.03;5071374;28;11598;-66
2022/12/11 05:56:12;;;;;;;;;26.75;23.00;;;;;2.61;80.08;100969.28;5069266;28;11588;-65
2022/12/11 05:58:40;;;;;;;;;29.25;22.00;;;;;2.64;79.96;100971.69;5070488;28;11580;-66
2022/12/11 06:01:09;;;;;;;;;23.00;22.50;;;;;2.65;80.10;100968.88;5071164;28;11563;-66
2022/12/11 06:03:36;;;;;;;;;36.25;27.75;;;;;2.66;79.75;100964.38;5070772;28;11585;-67
2022/12/11 06:06:04;;;;;;;;;44.25;29.25;;;;;2.60;79.75;100962.31;5069674;28;11572;-67
2022/12/11 06:08:31;;;;;;;;;28.75;27.50;;;;;2.60;79.60;100964.97;5067101;28;11623;-67
2022/12/11 06:10:58;;;;;;;;;32.75;26.25;;;;;2.61;79.97;100969.28;5052239;28;11726;-67
2022/12/11 06:13:25;;;;;;;;;43.25;26.75;;;;;2.60;79.77;100971.13;5071203;28;11605;-67
2022/12/11 06:15:52;;;;;;;;;32.25;30.25;;;;;2.59;79.63;100964.09;5070669;28;11698;-67
2022/12/11 06:18:18;;;;;;;;;26.50;24.50;;;;;2.61;79.61;100974.59;5071309;28;12393;-66
2022/12/11 06:20:45;;;;;;;;;29.75;23.25;;;;;2.62;79.74;100969.13;5069611;28;11585;-66
2022/12/11 06:23:11;;;;;;;;;28.25;24.50;;;;;2.64;79.88;100969.03;5057586;28;11641;-66
2022/12/11 06:25:39;;;;;;;;;35.25;31.25;;;;;2.58;79.56;100975.72;5070174;28;12243;-66
2022/12/11 06:28:06;;;;;;;;;36.25;35.00;;;;;2.54;79.74;100971.66;5071317;28;12312;-66
2022/12/11 06:30:32;;;;;;;;;30.00;25.25;;;;;2.55;79.68;100980.47;5071413;28;11624;-67
2022/12/11 06:33:05;;;;;;;;;34.75;29.25;;;;;2.56;79.75;100979.50;5070604;28;11586;-65
2022/12/11 06:35:31;;;;;;;;;33.00;27.25;;;;;2.55;79.55;100983.13;5060997;28;11676;-63
2022/12/11 06:38:05;;;;;;;;;33.00;27.00;;;;;2.53;79.48;100977.13;5070555;28;12292;-67
2022/12/11 06:40:31;;;;;;;;;35.25;29.50;;;;;2.51;80.04;100979.91;5069500;28;11700;-67
2022/12/11 06:42:58;;;;;;;;;28.00;21.50;;;;;2.49;79.42;100979.22;5070620;28;11559;-66
2022/12/11 06:45:24;;;;;;;;;36.00;31.25;;;;;2.50;79.76;100982.69;5070240;28;11649;-67
2022/12/11 06:47:51;;;;;;;;;50.00;39.00;;;;;2.51;79.69;100981.72;5063612;28;11596;-66
2022/12/11 06:50:17;;;;;;;;;34.25;30.25;;;;;2.46;79.68;100982.13;5066682;28;11703;-67
2022/12/11 06:52:44;;;;;;;;;37.75;30.00;;;;;2.48;79.50;100983.69;5070568;28;11610;-67
2022/12/11 06:55:10;;;;;;;;;37.25;30.00;;;;;2.45;79.38;100983.97;5070129;28;11595;-67
2022/12/11 06:57:37;;;;;;;;;30.75;27.75;;;;;2.43;79.47;100985.06;5068763;28;11685;-66
2022/12/11 07:00:04;;;;;;;;;25.25;24.00;;;;;2.46;79.58;100990.94;5063512;28;11627;-66
2022/12/11 07:02:31;;;;;;;;;40.50;34.00;;;;;2.33;79.25;100990.38;5064160;28;12135;-67
2022/12/11 07:04:57;;;;;;;;;36.75;30.75;;;;;2.33;79.69;101001.00;5069778;28;11668;-66
2022/12/11 07:07:23;;;;;;;;;42.25;34.00;;;;;2.34;79.63;101001.84;5052471;28;12388;-67
2022/12/11 07:09:50;;;;;;;;;37.75;31.75;;;;;2.39;79.43;100999.59;5069303;28;12293;-67
2022/12/11 07:12:17;;;;;;;;;28.25;24.75;;;;;2.42;79.76;100996.69;5069936;28;11722;-67
2022/12/11 07:14:43;;;;;;;;;29.25;24.75;;;;;2.44;79.68;101003.53;5058688;28;11634;-67
2022/12/11 07:17:10;;;;;;;;;29.50;26.50;;;;;2.45;79.39;100997.25;5068088;28;11659;-66
2022/12/11 07:19:36;;;;;;;;;29.50;22.50;;;;;2.48;79.35;101004.09;5050904;28;11583;-66
2022/12/11 07:22:02;;;;;;;;;30.50;29.25;;;;;2.51;79.21;100998.50;5048604;28;11628;-67
2022/12/11 07:24:29;;;;;;;;;34.25;26.75;;;;;2.54;79.62;100995.56;5054376;28;11657;-67
2022/12/11 07:26:55;;;;;;;;;29.25;23.00;;;;;2.53;79.18;101001.88;5063586;28;11602;-67
2022/12/11 07:29:22;;;;;;;;;32.50;26.75;;;;;2.51;79.46;101005.63;5066954;28;11574;-67
2022/12/11 07:31:49;;;;;;;;;34.00;32.25;;;;;2.48;79.20;101004.94;5069019;28;11721;-66
2022/12/11 07:34:15;;;;;;;;;26.00;23.75;;;;;2.48;79.39;101004.94;5051012;28;11582;-66
2022/12/11 07:36:42;;;;;;;;;26.00;24.25;;;;;2.48;78.91;101010.25;5064738;28;11553;-66
2022/12/11 07:39:11;;;;;;;;;31.50;27.00;;;;;2.49;78.88;101005.78;5069073;28;11598;-65
2022/12/11 07:41:37;;;;;;;;;32.75;26.00;;;;;2.40;78.71;101010.09;5042598;28;11743;-68
2022/12/11 07:44:09;;;;;;;;;26.00;25.50;;;;;2.40;79.17;101006.63;5051861;28;11595;-68
2022/12/11 07:46:36;;;;;;;;;31.75;26.75;;;;;2.37;78.71;101002.41;5070030;28;11604;-68
2022/12/11 07:49:04;;;;;;;;;28.00;23.00;;;;;2.41;78.74;101008.28;5069755;28;11581;-67
2022/12/11 07:51:34;;;;;;;;;31.00;25.00;;;;;2.41;78.74;101013.59;5044600;28;12288;-67
2022/12/11 07:54:04;;;;;;;;;30.00;26.75;;;;;2.43;78.82;101011.63;5064389;28;11590;-67
2022/12/11 07:56:31;;;;;;;;;38.75;27.50;;;;;2.44;78.16;101011.50;5044739;28;11563;-67
2022/12/11 07:59:02;;;;;;;;;25.75;24.00;;;;;2.46;78.38;101009.53;5073839;28;11630;-67
2022/12/11 08:01:31;;;;;;;;;24.50;19.25;;;;;2.51;78.77;101008.28;5073922;28;11653;-68
2022/12/11 08:03:57;;;;;;;;;25.25;18.75;;;;;2.54;78.26;101006.19;5072239;28;12277;-67
2022/12/11 08:06:31;;;;;;;;;25.25;20.25;;;;;2.54;78.02;101014.16;5068219;28;11691;-67
2022/12/11 08:09:00;;;;;;;;;22.50;17.25;;;;;2.54;78.13;101016.81;5064892;28;11571;-67
2022/12/11 08:11:26;;;;;;;;;29.25;25.00;;;;;2.52;77.86;101012.66;5075315;28;11684;-67
2022/12/11 08:13:54;;;;;;;;;29.75;19.25;;;;;2.54;78.13;101014.16;5055389;28;11549;-66
2022/12/11 08:16:21;;;;;;;;;26.75;23.75;;;;;2.49;78.10;101016.41;5072881;28;11578;-67
2022/12/11 08:18:49;;;;;;;;;31.50;22.75;;;;;2.47;77.96;101018.34;5048881;28;11681;-65
2022/12/11 08:21:24;;;;;;;;;42.75;27.75;;;;;2.41;77.99;101019.75;5071342;28;11583;-67
2022/12/11 08:23:51;;;;;;;;;32.50;25.25;;;;;2.43;78.10;101022.25;5053367;28;11624;-67
2022/12/11 08:26:24;;;;;;;;;33.00;27.00;;;;;2.43;78.19;101027.56;5072438;28;11536;-66
2022/12/11 08:28:50;;;;;;;;;31.50;27.50;;;;;2.37;78.18;101028.97;5054886;28;12374;-66
2022/12/11 08:31:18;;;;;;;;;34.00;28.25;;;;;2.35;78.14;101024.75;5065549;28;11595;-67
2022/12/11 08:33:45;;;;;;;;;30.25;27.00;;;;;2.36;78.14;101035.25;5068454;28;11573;-67
2022/12/11 08:36:15;;;;;;;;;40.00;31.50;;;;;2.34;77.93;101042.50;5071597;28;11619;-66
2022/12/11 08:38:41;;;;;;;;;38.75;30.75;;;;;2.27;78.14;101035.22;5071523;28;11594;-67
2022/12/11 08:41:15;;;;;;;;;37.00;32.00;;;;;2.21;77.93;101031.31;5072535;28;12288;-68
2022/12/11 08:43:42;;;;;;;;;30.50;24.50;;;;;2.18;78.05;101036.88;5067371;28;11618;-65
2022/12/11 08:46:11;;;;;;;;;33.50;26.75;;;;;2.22;77.98;101035.63;5069071;28;11706;-68
2022/12/11 08:48:39;;;;;;;;;32.25;26.50;;;;;2.31;77.97;101032.19;5069990;28;13898;-66
2022/12/11 08:51:09;;;;;;;;;38.00;26.25;;;;;2.36;77.72;101024.63;5072135;28;11594;-67
2022/12/11 08:53:35;;;;;;;;;37.50;28.00;;;;;2.42;77.81;101026.72;5072481;28;12392;-67
2022/12/11 08:56:08;;;;;;;;;34.00;32.00;;;;;2.40;77.67;101022.56;5051270;28;11606;-67
2022/12/11 08:58:35;;;;;;;;;37.50;31.25;;;;;2.41;77.63;101030.38;5046359;28;11656;-65
2022/12/11 09:01:07;;;;;;;;;30.75;26.50;;;;;2.43;77.38;101024.91;5070578;28;12376;-67
2022/12/11 09:03:35;;;;;;;;;30.50;27.25;;;;;2.47;77.39;101026.31;5066933;28;11606;-66
2022/12/11 09:06:06;;;;;;;;;30.25;25.50;;;;;2.53;77.44;101016.97;5072647;28;11566;-67
2022/12/11 09:08:33;;;;;;;;;27.75;23.25;;;;;2.57;77.29;101023.69;5073476;28;11690;-66
2022/12/11 09:11:12;;;;;;;;;37.75;32.00;;;;;2.53;77.12;101022.28;5065185;28;11583;-67
2022/12/11 09:13:40;;;;;;;;;32.25;30.50;;;;;2.46;77.18;101022.00;5065333;28;11588;-66
2022/12/11 09:16:10;;;;;;;;;39.00;33.50;;;;;2.40;77.17;101012.75;5071846;28;11558;-67
2022/12/11 09:18:37;;;;;;;;;34.75;27.75;;;;;2.38;77.19;101011.22;5053774;28;12330;-68
2022/12/11 09:21:07;;;;;;;;;33.50;27.75;;;;;2.39;77.06;101007.56;5070927;28;11591;-66
2022/12/11 09:23:33;;;;;;;;;41.25;33.00;;;;;2.39;76.99;101004.91;5060075;28;11642;-66
2022/12/11 09:26:04;;;;;;;;;28.25;26.75;;;;;2.44;76.96;101006.19;5070504;28;12411;-67
2022/12/11 09:28:32;;;;;;;;;33.25;32.25;;;;;2.49;77.01;101016.41;5070623;28;11603;-69
2022/12/11 09:30:58;;;;;;;;;30.75;24.25;;;;;2.50;76.79;101010.09;5063582;28;11726;-68
2022/12/11 09:33:25;;;;;;;;;26.75;24.75;;;;;2.51;76.74;101014.44;5067523;28;11580;-68
2022/12/11 09:35:59;;;;;;;;;38.50;30.50;;;;;2.52;76.90;101013.47;5079308;28;11732;-66
2022/12/11 09:38:26;;;;;;;;;31.00;28.00;;;;;2.55;76.17;101020.31;5052035;28;11608;-67
2022/12/11 09:40:53;;;;;;;;;30.75;23.75;;;;;2.58;76.29;101010.25;5072888;28;11585;-66
2022/12/11 09:43:42;;;;;;;;;31.25;31.25;;;;;2.58;76.05;101007.59;5071227;28;11633;-67
2022/12/11 09:46:12;;;;;;;;;34.25;27.75;;;;;2.55;76.08;101007.03;5053127;28;11588;-67
2022/12/11 09:48:42;;;;;;;;;44.00;33.50;;;;;2.48;76.08;101007.59;5067584;28;11577;-68
2022/12/11 09:51:26;;;;;;;;;28.25;22.25;;;;;2.54;75.98;101013.34;5067471;28;12328;-67
2022/12/11 09:53:58;;;;;;;;;39.00;31.00;;;;;2.58;76.25;101009.41;5064454;28;11615;-68
2022/12/11 09:56:48;;;;;;;;;23.75;20.25;;;;;2.66;75.83;101005.09;5065387;28;11573;-67
2022/12/11 09:59:37;;;;;;;;;20.25;16.50;;;;;2.73;75.66;101002.72;5071582;28;12366;-67
2022/12/11 10:02:18;;;;;;;;;20.25;16.25;;;;;2.79;75.56;101007.47;5048504;28;11695;-68
2022/12/11 10:05:16;;;;;;;;;18.25;17.25;;;;;2.85;75.33;101004.25;5069456;28;11583;-66
2022/12/11 10:07:51;;;;;;;;;29.50;17.00;;;;;2.87;74.83;101004.13;5067757;28;11550;-68
2022/12/11 10:11:02;;;;;;;;;22.25;17.50;;;;;2.87;74.87;101001.47;5070661;28;11574;-67
2022/12/11 10:13:58;;;;;;;;;26.75;23.75;;;;;2.81;74.44;100999.38;5042754;28;11579;-68
2022/12/11 10:17:08;;;;;;;;;29.75;19.00;;;;;2.83;74.36;101016.84;5069361;28;12425;-67
2022/12/11 10:19:35;;;;;;;;;21.00;21.00;;;;;2.84;74.08;101004.41;4969914;28;11472;-67
2022/12/11 10:22:02;;;;;;;;;30.25;25.50;;;;;2.85;74.28;101001.59;5039979;28;11604;-67
2022/12/11 10:24:38;;;;;;;;;28.50;26.00;;;;;2.85;74.04;101008.75;5069936;28;11572;-68
2022/12/11 10:27:32;;;;;;;;;35.50;30.00;;;;;2.83;74.38;101005.38;5065754;28;11557;-68
2022/12/11 10:30:11;;;;;;;;;32.25;28.75;;;;;2.84;74.30;101002.59;5068488;28;11579;-66
2022/12/11 10:32:43;;;;;;;;;39.50;31.75;;;;;2.89;74.50;101004.81;5070666;28;11567;-67
2022/12/11 10:35:19;;;;;;;;;45.50;34.00;;;;;2.90;74.38;100999.34;5069328;28;11600;-67
2022/12/11 10:37:45;;;;;;;;;34.25;26.25;;;;;2.90;75.10;100998.53;5069593;28;11569;-66
2022/12/11 10:40:12;;;;;;;;;34.50;31.75;;;;;2.88;74.39;100993.34;5072256;28;11607;-66
2022/12/11 10:42:39;;;;;;;;;32.50;26.25;;;;;2.89;74.88;100995.03;5075564;28;11542;-66
2022/12/11 10:45:15;;;;;;;;;36.00;32.25;;;;;2.85;74.89;100987.47;5068585;28;11587;-67
2022/12/11 10:47:41;;;;;;;;;38.50;31.50;;;;;2.86;74.93;100987.31;5068153;28;11596;-68
2022/12/11 10:50:22;;;;;;;;;35.75;26.50;;;;;2.90;75.18;100979.91;5069860;28;11578;-68
2022/12/11 10:52:50;;;;;;;;;39.25;31.50;;;;;2.92;75.25;100986.78;5058905;28;11611;-67
2022/12/11 10:55:29;;;;;;;;;33.25;30.00;;;;;2.95;75.45;100983.81;5081720;28;11601;-66
2022/12/11 10:57:59;;;;;;;;;33.00;31.25;;;;;2.98;75.11;100972.91;5077374;28;11603;-65
2022/12/11 11:00:34;;;;;;;;;29.25;25.00;;;;;2.95;74.93;100980.31;5079598;28;11651;-65
2022/12/11 11:03:02;;;;;;;;;42.75;32.25;;;;;2.94;75.19;100981.31;5058025;28;11599;-65
2022/12/11 11:05:34;;;;;;;;;35.25;27.00;;;;;2.91;75.26;100977.09;5063804;28;11588;-66
2022/12/11 11:08:21;;;;;;;;;42.00;36.25;;;;;2.91;75.05;100973.59;5072006;28;12318;-67
2022/12/11 11:10:51;;;;;;;;;41.00;33.25;;;;;2.91;75.09;100968.28;5050281;28;11602;-67
2022/12/11 11:13:22;;;;;;;;;30.50;25.75;;;;;2.90;75.30;100966.63;5055036;28;11596;-67
2022/12/11 11:15:58;;;;;;;;;33.25;25.00;;;;;2.93;75.27;100967.19;5069253;28;11573;-66
2022/12/11 11:18:26;;;;;;;;;34.75;32.25;;;;;2.94;75.31;100960.88;5066886;28;11579;-66
2022/12/11 11:20:54;;;;;;;;;31.00;29.75;;;;;3.00;75.18;100967.47;5063592;28;12399;-66
2022/12/11 11:23:22;;;;;;;;;27.75;24.25;;;;;3.00;75.09;100959.47;5069870;28;11571;-67
2022/12/11 11:25:53;;;;;;;;;30.75;28.50;;;;;3.04;75.54;100966.19;5070792;28;11575;-68
2022/12/11 11:28:24;;;;;;;;;39.75;29.50;;;;;3.05;75.13;100965.22;5070302;28;11594;-68
2022/12/11 11:31:11;;;;;;;;;19.75;19.75;;;;;3.57;81.27;100967.47;5066808;28;12429;-67
2022/12/11 11:33:51;;;;;;;;;25.25;24.75;;;;;3.49;77.10;100960.19;5063500;28;12375;-68
2022/12/11 11:36:23;;;;;;;;;38.25;30.75;;;;;3.34;75.70;100962.47;5071483;28;11582;-69
2022/12/11 11:39:04;;;;;;;;;31.50;27.00;;;;;3.27;75.61;100958.72;5074332;28;11590;-68
2022/12/11 11:41:40;;;;;;;;;43.25;34.50;;;;;3.26;75.46;100951.72;5073898;28;11548;-66
2022/12/11 11:44:12;;;;;;;;;32.50;25.50;;;;;3.26;75.39;100951.72;5067351;28;11646;-68